»·PEaware :: DCM2015 KPHX-KLAX

DCM2015 :: KPHX-KLAX

FLIGHT INFORMATION

Flight Status: Arrived
Operator: Unknown
More flights by this operator :: More flights under this callsign
Pilot: Alexander E. (16050)
Aircraft: Unknown
(B789)
More flights by this aircraft type
Origin: KPHX Phoenix Sky Harbor Intl
United States
Destination: KLAX Los Angeles Intl
United States
More flights between these airports :: More routes between these airports
Route: +KEENS2 MESSI ESTWD HLYWD1
File this flight plan on PilotEdge
Remarks:
Altitude:
(Current/Filed)
34,000ft
Speed:
(Current/Filed)
480kts
Departed: 17-Nov-18 09:10 AM
Arrived: 17-Nov-18 10:08 AM
Distance/Time
Traveled:
320nm/0:57
Distance/Time
To Go:
Arrived

Flight Plot

Page will automatically refresh every two minutes.

Flight plan parsing failed; only flown route is shown


Map Options




Map Legend


Flown Route
Filed Route
Departure Airport
Arrival Airport
Navaid (VOR, NDB)
Fix

Horizontal Profiles

Position Reports

Time Latitude Longitude Heading Altitude Ground
Speed
17-Nov-18 08:59 33.426778 -112.019790 228 1148ft 0kts
17-Nov-18 09:00 33.426778 -112.019790 228 1148ft 0kts
17-Nov-18 09:01 33.426778 -112.019790 228 1148ft 0kts
17-Nov-18 09:02 33.426778 -112.019790 228 1148ft 0kts
17-Nov-18 09:03 33.426778 -112.019790 228 1148ft 0kts
17-Nov-18 09:04 33.426778 -112.019791 228 1148ft 0kts
17-Nov-18 09:05 33.426776 -112.019794 228 1148ft 0kts
17-Nov-18 09:06 33.426773 -112.019797 228 1148ft 0kts
17-Nov-18 09:07 33.426771 -112.019801 228 1148ft 0kts
17-Nov-18 09:08 33.426602 -112.020316 257 1148ft 7kts
17-Nov-18 09:09 33.426832 -112.021106 344 1148ft 0kts
17-Nov-18 09:10 33.427329 -112.021178 353 1148ft 7kts
17-Nov-18 09:11 33.427745 -112.025171 269 1148ft 4kts
17-Nov-18 09:12 33.428693 -112.026811 55 1148ft 12kts
17-Nov-18 09:13 33.428226 -111.991316 88 2499ft 183kts
17-Nov-18 09:14 33.432064 -111.924043 86 5372ft 213kts
17-Nov-18 09:15 33.406209 -111.854264 152 8166ft 275kts
17-Nov-18 09:16 33.349826 -111.897862 267 11230ft 320kts
17-Nov-18 09:17 33.363940 -112.013633 280 13831ft 370kts
17-Nov-18 09:18 33.382162 -112.136190 280 17245ft 381kts
17-Nov-18 09:19 33.400928 -112.263183 280 20185ft 393kts
17-Nov-18 09:20 33.420109 -112.393929 279 22790ft 405kts
17-Nov-18 09:21 33.439741 -112.528679 279 25145ft 416kts
17-Nov-18 09:22 33.451177 -112.668109 271 27212ft 427kts
17-Nov-18 09:23 33.464240 -112.810409 286 28983ft 437kts
17-Nov-18 09:24 33.506052 -112.948453 290 30487ft 447kts
17-Nov-18 09:25 33.554082 -113.087861 291 31770ft 456kts
17-Nov-18 09:26 33.602829 -113.228610 291 33489ft 452kts
17-Nov-18 09:27 33.650740 -113.367363 291 34157ft 451kts
17-Nov-18 09:28 33.698714 -113.506806 291 34158ft 452kts
17-Nov-18 09:29 33.746419 -113.646306 290 34171ft 451kts
17-Nov-18 09:30 33.794003 -113.785922 290 34165ft 451kts
17-Nov-18 09:31 33.841512 -113.925218 291 34152ft 450kts
17-Nov-18 09:32 33.888666 -114.064474 290 34147ft 450kts
17-Nov-18 09:33 33.921947 -114.209169 280 34148ft 449kts
17-Nov-18 09:34 33.946492 -114.356635 280 34155ft 449kts
17-Nov-18 09:35 33.971280 -114.504503 280 34142ft 449kts
17-Nov-18 09:36 33.995939 -114.651999 280 34138ft 450kts
17-Nov-18 09:37 34.020318 -114.799749 280 34151ft 448kts
17-Nov-18 09:38 34.044559 -114.947401 280 34154ft 447kts
17-Nov-18 09:39 34.068553 -115.094433 280 34147ft 447kts
17-Nov-18 09:40 34.092481 -115.241887 280 34151ft 448kts
17-Nov-18 09:41 34.116245 -115.389619 280 34169ft 449kts
17-Nov-18 09:42 34.139855 -115.537520 280 34172ft 449kts
17-Nov-18 09:43 34.160990 -115.686399 270 34156ft 450kts
17-Nov-18 09:44 34.149472 -115.836903 264 34186ft 451kts
17-Nov-18 09:45 34.134998 -115.987207 263 33242ft 450kts
17-Nov-18 09:46 34.120341 -116.136907 263 31445ft 447kts
17-Nov-18 09:47 34.105609 -116.284174 263 29685ft 437kts
17-Nov-18 09:48 34.093182 -116.402508 263 28293ft 414kts
17-Nov-18 09:49 34.079061 -116.533686 263 26763ft 382kts
17-Nov-18 09:50 34.064624 -116.681165 264 24785ft 380kts
17-Nov-18 09:51 34.054897 -116.784869 264 23040ft 365kts
17-Nov-18 09:52 34.040283 -116.924822 262 20713ft 358kts
17-Nov-18 09:53 34.027652 -117.023772 262 18297ft 357kts
17-Nov-18 09:54 34.013791 -117.139856 262 15914ft 338kts
17-Nov-18 09:55 34.000634 -117.250042 262 14779ft 330kts
17-Nov-18 09:56 33.987895 -117.357410 262 13518ft 314kts
17-Nov-18 09:57 33.975700 -117.460693 262 12286ft 307kts
17-Nov-18 09:58 33.970440 -117.562835 268 12002ft 304kts
17-Nov-18 09:59 33.995190 -117.655358 291 11097ft 296kts
17-Nov-18 10:00 34.002245 -117.749920 261 9349ft 284kts
17-Nov-18 10:01 33.992126 -117.835630 261 7764ft 229kts
17-Nov-18 10:02 33.982784 -117.910160 267 6416ft 222kts
17-Nov-18 10:03 33.978305 -117.983760 263 6051ft 221kts
17-Nov-18 10:04 33.970727 -118.055524 263 5452ft 209kts
17-Nov-18 10:05 33.963864 -118.124177 262 4311ft 205kts
17-Nov-18 10:06 33.957169 -118.189129 262 3224ft 173kts
17-Nov-18 10:07 33.951611 -118.243291 262 2411ft 158kts
17-Nov-18 10:08 33.946393 -118.294661 262 1587ft 154kts
17-Nov-18 10:09 33.941115 -118.346121 262 764ft 153kts
17-Nov-18 10:10 33.936067 -118.395181 264 139ft 106kts
17-Nov-18 10:11 33.934526 -118.407261 185 139ft 8kts
17-Nov-18 10:12 33.934060 -118.407237 173 139ft 1kts
17-Nov-18 10:13 33.934039 -118.407234 173 139ft 0kts
17-Nov-18 10:14 33.933925 -118.404294 83 139ft 18kts
17-Nov-18 10:15 33.933974 -118.400696 213 139ft 5kts
17-Nov-18 10:16 33.933358 -118.400694 173 139ft 0kts
17-Nov-18 10:17 33.933358 -118.400694 173 139ft 0kts
17-Nov-18 10:18 33.933358 -118.400694 173 139ft 0kts
17-Nov-18 10:19 33.933358 -118.400694 173 139ft 0kts
17-Nov-18 10:20 33.933358 -118.400694 173 139ft 0kts
17-Nov-18 10:21 33.933358 -118.400694 173 139ft 0kts
17-Nov-18 10:22 33.933358 -118.400694 173 139ft 0kts
17-Nov-18 10:23 33.933358 -118.400694 173 139ft 0kts
17-Nov-18 10:24 33.933358 -118.400694 173 139ft 0kts
17-Nov-18 10:25 33.933358 -118.400694 173 139ft 0kts

Navigation Log

Ident Type
Flight plan parsing failed, navigation log unavailable